Time;durP1;ratioP1;P1;durP2;ratioP2;P2;SDS_P1;SDS_P2;PMS_P1;PMS_P2;Temp;Humidity;BMP_temperature;BMP_pressure;BME280_temperature;BME280_humidity;BME280_pressure;Samples;Min_cycle;Max_cycle;Signal;HPM_P1;HPM_P2
2022/07/10 00:00:02;;;;;;;5.78;2.15;;;23.20;97.80;;;;;;12955825;22;20588;-86
2022/07/10 00:05:13;;;;;;;8.77;1.95;;;23.10;96.60;;;;;;12977927;22;20216;-86
2022/07/10 00:10:22;;;;;;;4.70;2.38;;;23.20;96.70;;;;;;12999584;22;20509;-86
2022/07/10 00:15:25;;;;;;;2.40;1.05;;;23.00;97.40;;;;;;13000823;22;20170;-86
2022/07/10 00:20:27;;;;;;;8.07;2.13;;;22.80;94.50;;;;;;12981844;22;20165;-86
2022/07/10 00:25:30;;;;;;;6.70;1.73;;;22.80;97.50;;;;;;12954929;22;20186;-86
2022/07/10 00:30:32;;;;;;;2.65;1.27;;;23.00;97.30;;;;;;12954109;22;20219;-86
2022/07/10 00:35:36;;;;;;;3.85;1.63;;;23.00;97.10;;;;;;13000484;22;20170;-86
2022/07/10 00:40:38;;;;;;;6.82;2.60;;;22.90;97.20;;;;;;12981693;22;20170;-86
2022/07/10 00:45:41;;;;;;;7.75;1.85;;;23.00;95.90;;;;;;12998380;22;20569;-86
2022/07/10 00:50:45;;;;;;;2.45;1.45;;;23.10;95.00;;;;;;12981826;22;20161;-87
2022/07/10 00:55:47;;;;;;;7.68;2.15;;;23.00;96.80;;;;;;12953317;22;20178;-86
2022/07/10 01:00:50;;;;;;;6.78;1.98;;;22.90;96.80;;;;;;12961326;22;20527;-86
2022/07/10 01:05:53;;;;;;;5.07;1.20;;;22.80;96.20;;;;;;12954392;22;20578;-86
2022/07/10 01:10:55;;;;;;;2.50;1.50;;;22.80;96.70;;;;;;12980641;22;20208;-86
2022/07/10 01:15:58;;;;;;;3.67;1.85;;;23.00;96.30;;;;;;12980811;22;20215;-86
2022/07/10 01:21:00;;;;;;;3.55;1.30;;;22.90;96.30;;;;;;12953955;22;20166;-86
2022/07/10 01:26:04;;;;;;;3.25;1.67;;;22.80;96.40;;;;;;12952928;22;20722;-86
2022/07/10 01:31:06;;;;;;;4.13;1.85;;;22.60;96.40;;;;;;12980492;22;20166;-86
2022/07/10 01:36:09;;;;;;;2.28;1.02;;;22.60;96.40;;;;;;12980507;22;20165;-86
2022/07/10 01:41:12;;;;;;;2.42;1.08;;;22.50;92.40;;;;;;12980048;22;20235;-86
2022/07/10 01:46:16;;;;;;;2.78;1.17;;;22.40;93.60;;;;;;12980691;22;20186;-86
2022/07/10 01:51:18;;;;;;;4.10;1.15;;;22.40;96.10;;;;;;12980286;22;20506;-86
2022/07/10 01:56:21;;;;;;;4.35;1.25;;;22.50;96.40;;;;;;12951657;22;20211;-86
2022/07/10 02:01:23;;;;;;;2.40;1.13;;;22.60;96.20;;;;;;12953421;22;20239;-86
2022/07/10 02:06:26;;;;;;;2.25;1.00;;;22.60;95.20;;;;;;12979944;22;20193;-85
2022/07/10 02:11:29;;;;;;;3.28;1.02;;;22.60;95.90;;;;;;12952279;22;20178;-86
2022/07/10 02:16:31;;;;;;;3.67;1.80;;;22.20;95.80;;;;;;12980729;22;20166;-87
2022/07/10 02:21:34;;;;;;;2.92;1.27;;;22.30;94.10;;;;;;12970754;22;20166;-86
2022/07/10 02:26:37;;;;;;;4.10;1.65;;;22.50;96.00;;;;;;12952512;22;20251;-86
2022/07/10 02:31:42;;;;;;;4.50;0.95;;;22.20;96.00;;;;;;12980424;22;20192;-86
2022/07/10 02:36:45;;;;;;;2.33;1.20;;;22.50;95.80;;;;;;12952992;22;20178;-87
2022/07/10 02:41:47;;;;;;;1.70;1.45;;;22.50;95.60;;;;;;12927391;22;20178;-86
2022/07/10 02:46:50;;;;;;;2.17;1.27;;;22.10;95.90;;;;;;12953431;22;20558;-86
2022/07/10 02:51:53;;;;;;;2.35;1.13;;;22.10;96.00;;;;;;12953567;22;20607;-86
2022/07/10 02:56:55;;;;;;;2.20;1.02;;;22.30;95.80;;;;;;12980050;22;20512;-86
2022/07/10 03:01:58;;;;;;;4.15;1.38;;;22.40;95.50;;;;;;12951413;22;20201;-86
2022/07/10 03:07:01;;;;;;;4.22;1.10;;;22.20;95.80;;;;;;12998983;22;20570;-86
2022/07/10 03:12:04;;;;;;;4.43;1.23;;;22.20;95.00;;;;;;12955433;22;20174;-86
2022/07/10 03:17:06;;;;;;;2.85;1.08;;;22.40;95.30;;;;;;12998738;22;20547;-86
2022/07/10 03:22:09;;;;;;;2.75;0.85;;;22.40;95.40;;;;;;12982977;22;20169;-86
2022/07/10 03:27:11;;;;;;;2.00;0.90;;;22.50;95.00;;;;;;12955393;22;20198;-86
2022/07/10 03:32:14;;;;;;;2.08;0.85;;;22.60;94.70;;;;;;12955859;22;20200;-86
2022/07/10 03:37:16;;;;;;;1.38;0.80;;;22.60;94.50;;;;;;12982950;22;20169;-86
2022/07/10 03:42:19;;;;;;;2.40;1.02;;;22.50;94.60;;;;;;12983124;22;20174;-86
2022/07/10 03:47:22;;;;;;;1.88;0.80;;;22.40;94.70;;;;;;12955476;22;20672;-86
2022/07/10 03:52:24;;;;;;;2.17;0.77;;;22.40;94.80;;;;;;12955829;22;20170;-85
2022/07/10 04:02:49;;;;;;;2.08;1.02;;;22.10;94.80;;;;;;12955804;22;20177;-86
2022/07/10 04:07:51;;;;;;;2.28;1.05;;;22.30;94.40;;;;;;12956172;22;20271;-86
2022/07/10 04:12:54;;;;;;;2.08;0.80;;;22.30;94.10;;;;;;12982413;22;20562;-86
2022/07/10 04:17:57;;;;;;;2.15;0.90;;;22.50;94.30;;;;;;12979851;22;20165;-86
2022/07/10 04:22:59;;;;;;;5.70;1.38;;;22.10;94.20;;;;;;13001321;22;20554;-86
2022/07/10 04:28:02;;;;;;;3.22;0.60;;;22.40;92.80;;;;;;12954350;22;20247;-86
2022/07/10 04:33:05;;;;;;;2.25;0.65;;;21.90;94.90;;;;;;12955034;22;20204;-85
2022/07/10 04:38:07;;;;;;;4.43;0.68;;;22.20;94.60;;;;;;12955660;22;20170;-86
2022/07/10 04:43:10;;;;;;;1.27;0.70;;;21.70;94.90;;;;;;12982129;22;20173;-85
2022/07/10 04:48:12;;;;;;;3.70;0.75;;;21.80;95.30;;;;;;12954593;22;20211;-85
2022/07/10 04:53:14;;;;;;;1.38;0.70;;;22.00;94.70;;;;;;12982215;22;20516;-86
2022/07/10 04:58:17;;;;;;;2.10;1.02;;;21.80;93.60;;;;;;12953318;22;20672;-86
2022/07/10 05:03:19;;;;;;;5.72;1.15;;;21.90;94.10;;;;;;12954018;22;20553;-86
2022/07/10 05:08:22;;;;;;;1.60;1.05;;;21.80;93.40;;;;;;12954164;22;20201;-85
2022/07/10 05:13:24;;;;;;;2.15;0.80;;;21.80;95.20;;;;;;12954040;22;20182;-85
2022/07/10 05:18:27;;;;;;;1.63;0.80;;;21.50;95.30;;;;;;13000923;22;20166;-85
2022/07/10 05:23:30;;;;;;;5.45;0.85;;;21.70;94.00;;;;;;12981963;22;20169;-85
2022/07/10 05:28:32;;;;;;;4.03;0.90;;;21.60;95.10;;;;;;12980657;22;20182;-86
2022/07/10 05:33:35;;;;;;;1.38;0.70;;;22.00;94.10;;;;;;12954772;22;20162;-85
2022/07/10 05:38:38;;;;;;;3.22;1.17;;;21.80;94.20;;;;;;12981327;22;20169;-85
2022/07/10 05:43:41;;;;;;;1.00;0.80;;;21.70;92.60;;;;;;12980228;22;20170;-86
2022/07/10 05:48:43;;;;;;;1.50;0.88;;;21.90;94.90;;;;;;12979688;22;20185;-86
2022/07/10 05:53:46;;;;;;;5.28;0.98;;;21.80;94.20;;;;;;12926743;22;20235;-86
2022/07/10 05:58:49;;;;;;;2.30;0.60;;;21.40;95.20;;;;;;12952045;22;20205;-87
2022/07/10 06:03:52;;;;;;;2.75;0.75;;;22.00;94.20;;;;;;12950989;22;20239;-87
2022/07/10 06:08:59;;;;;;;2.28;0.70;;;21.30;93.00;;;;;;12971576;22;20231;-87
2022/07/10 06:14:02;;;;;;;3.05;0.93;;;21.10;95.60;;;;;;12979044;22;20471;-87
2022/07/10 06:19:04;;;;;;;6.82;0.70;;;20.70;94.30;;;;;;12979564;22;20219;-87
2022/07/10 06:24:07;;;;;;;2.95;1.00;;;21.30;94.40;;;;;;12980044;22;20572;-86
2022/07/10 06:29:10;;;;;;;2.38;1.17;;;21.40;94.90;;;;;;12953133;22;20497;-87
2022/07/10 06:34:13;;;;;;;1.20;0.60;;;21.40;94.20;;;;;;12979795;22;20239;-87
2022/07/10 06:39:17;;;;;;;4.93;0.80;;;21.30;94.10;;;;;;12927114;22;20196;-86
2022/07/10 06:44:21;;;;;;;1.13;0.88;;;21.10;93.90;;;;;;12981553;22;20195;-86
2022/07/10 06:49:24;;;;;;;1.08;0.73;;;21.90;92.40;;;;;;12931206;22;20220;-86
2022/07/10 06:54:27;;;;;;;1.52;0.50;;;22.10;94.00;;;;;;12957520;22;20640;-87
2022/07/10 06:59:29;;;;;;;2.60;0.70;;;21.90;93.70;;;;;;12981634;22;20220;-87
2022/07/10 07:04:32;;;;;;;0.60;0.55;;;21.60;91.60;;;;;;12983690;22;20707;-87
2022/07/10 07:09:34;;;;;;;1.90;0.68;;;21.70;94.50;;;;;;12983572;22;20190;-87
2022/07/10 07:14:37;;;;;;;1.08;0.57;;;21.00;94.50;;;;;;12955864;22;20182;-86
2022/07/10 07:25:08;;;;;;;0.90;0.52;;;21.50;93.70;;;;;;13001858;22;20166;-86
2022/07/10 07:30:15;;;;;;;2.22;0.60;;;22.30;93.60;;;;;;12956262;22;20185;-86
2022/07/10 07:35:18;;;;;;;0.82;0.40;;;22.70;92.70;;;;;;12974804;22;20162;-86
2022/07/10 07:40:23;;;;;;;0.52;0.50;;;22.70;92.60;;;;;;12983374;22;20170;-86
2022/07/10 07:45:26;;;;;;;2.95;1.38;;;22.70;92.50;;;;;;12956229;22;20170;-87
2022/07/10 07:50:31;;;;;;;2.42;1.60;;;22.70;92.60;;;;;;12982140;22;20185;-86
2022/07/10 07:55:35;;;;;;;3.70;0.60;;;22.10;92.60;;;;;;12956479;22;20170;-87
2022/07/10 08:00:37;;;;;;;2.03;0.65;;;22.10;92.90;;;;;;12953149;22;20206;-87
2022/07/10 08:05:43;;;;;;;2.20;0.68;;;22.40;91.90;;;;;;12956039;22;20232;-87
2022/07/10 08:10:45;;;;;;;1.75;0.80;;;22.00;92.10;;;;;;12981979;22;20243;-87
2022/07/10 08:15:48;;;;;;;2.80;0.80;;;22.20;92.50;;;;;;12981852;22;20174;-87
2022/07/10 08:20:56;;;;;;;1.92;0.75;;;21.20;92.50;;;;;;13000366;22;20169;-88
2022/07/10 08:25:58;;;;;;;1.25;0.60;;;22.20;91.90;;;;;;12973471;22;20162;-87
2022/07/10 08:31:02;;;;;;;1.95;0.80;;;22.30;91.70;;;;;;12999228;22;20162;-87
2022/07/10 08:36:05;;;;;;;1.20;0.50;;;22.50;92.50;;;;;;12982705;22;20166;-87
2022/07/10 08:41:27;;;;;;;2.67;1.05;;;22.20;91.40;;;;;;12954243;22;20578;-88
2022/07/10 08:46:31;;;;;;;4.63;0.60;;;21.90;90.00;;;;;;12954364;22;20189;-88
2022/07/10 08:52:03;;;;;;;2.88;0.70;;;22.00;86.60;;;;;;12982349;22;20161;-88
2022/07/10 08:57:05;;;;;;;1.17;0.50;;;19.70;98.50;;;;;;12945812;22;20181;-87
2022/07/10 09:02:08;;;;;;;1.27;0.55;;;21.20;95.20;;;;;;12954890;22;20194;-88
2022/07/10 09:07:10;;;;;;;2.55;0.60;;;21.40;93.50;;;;;;12982252;22;20190;-88
2022/07/10 09:12:13;;;;;;;2.83;1.20;;;21.20;95.10;;;;;;12954997;22;20520;-89
2022/07/10 09:17:16;;;;;;;2.40;0.73;;;21.20;93.40;;;;;;12998075;22;20192;-87
2022/07/10 09:22:22;;;;;;;3.63;0.88;;;22.10;92.90;;;;;;12980741;22;20169;-86
2022/07/10 09:27:24;;;;;;;3.78;0.80;;;22.00;88.60;;;;;;12981438;22;20185;-86
2022/07/10 09:32:27;;;;;;;5.63;0.80;;;21.80;93.10;;;;;;12955123;22;20223;-86
2022/07/10 09:37:30;;;;;;;1.48;0.77;;;21.90;91.10;;;;;;12981124;22;20215;-87
2022/07/10 09:42:43;;;;;;;1.63;0.63;;;21.70;92.80;;;;;;12954098;22;20174;-86
2022/07/10 09:48:00;;;;;;;2.50;1.05;;;22.10;92.50;;;;;;12998317;22;20555;-87
2022/07/10 09:53:09;;;;;;;4.35;0.88;;;22.20;92.70;;;;;;12972539;22;20212;-87
2022/07/10 09:58:13;;;;;;;4.72;0.90;;;21.90;92.40;;;;;;12952643;22;20206;-86
2022/07/10 10:03:18;;;;;;;1.65;0.90;;;21.50;92.50;;;;;;13000314;22;20173;-88
2022/07/10 10:08:37;;;;;;;3.88;1.40;;;21.60;93.80;;;;;;12954284;22;20583;-89
2022/07/10 10:13:42;;;;;;;1.83;0.60;;;22.00;93.00;;;;;;12953960;22;20231;-87
2022/07/10 10:24:07;;;;;;;1.38;0.77;;;22.20;92.70;;;;;;12955917;22;20177;-89
2022/07/10 10:29:10;;;;;;;2.25;0.70;;;22.30;92.30;;;;;;12957375;22;20193;-90
2022/07/10 10:34:17;;;;;;;1.88;0.68;;;22.10;90.00;;;;;;12956649;22;20196;-89
2022/07/10 10:39:21;;;;;;;6.35;1.13;;;;;;;;;;12964522;22;20174;-91
2022/07/10 10:44:25;;;;;;;9.80;1.00;;;21.00;89.30;;;;;;13001367;22;20189;-95
2022/07/10 10:49:50;;;;;;;5.63;0.85;;;20.90;90.10;;;;;;12988467;22;20219;-96
2022/07/10 10:54:56;;;;;;;8.38;0.93;;;20.90;90.20;;;;;;12967409;22;20239;-96
2022/07/10 11:00:08;;;;;;;5.13;1.38;;;21.50;89.10;;;;;;12997452;22;20202;-96
2022/07/10 11:11:30;;;;;;;5.65;0.60;;;21.70;87.50;;;;;;12850705;22;20226;-93
2022/07/10 11:17:06;;;;;;;3.30;0.80;;;21.60;90.10;;;;;;12827092;23;20182;-96
2022/07/10 11:33:58;;;;;;;1.23;0.63;;;22.00;90.60;;;;;;12911007;22;20210;-96
2022/07/10 11:45:40;;;;;;;5.13;1.58;;;22.30;89.50;;;;;;12973561;22;20212;-96
2022/07/10 12:22:38;;;;;;;3.08;0.95;;;22.00;89.10;;;;;;12778638;23;20172;-95
2022/07/10 12:27:45;;;;;;;2.55;1.02;;;21.80;87.50;;;;;;12776381;23;20192;-95
2022/07/10 12:33:21;;;;;;;2.35;0.90;;;22.00;87.60;;;;;;12732549;23;20233;-96
2022/07/10 12:38:52;;;;;;;1.75;0.65;;;22.00;90.10;;;;;;12756800;23;20207;-95
2022/07/10 12:44:17;;;;;;;4.50;0.98;;;22.20;86.50;;;;;;12678116;23;20189;-95
2022/07/10 12:49:27;;;;;;;1.95;0.75;;;22.20;89.20;;;;;;12674707;23;20372;-96
2022/07/10 12:54:36;;;;;;;1.80;0.90;;;22.30;87.10;;;;;;12672830;23;20181;-95
2022/07/10 12:59:45;;;;;;;3.90;0.93;;;22.30;87.50;;;;;;12670984;23;20192;-96
2022/07/10 13:05:05;;;;;;;3.33;1.10;;;22.10;89.30;;;;;;12670914;23;20149;-96
2022/07/10 13:10:25;;;;;;;1.42;0.70;;;22.20;89.00;;;;;;12701610;23;20205;-95
2022/07/10 13:15:56;;;;;;;2.55;0.70;;;22.30;88.60;;;;;;12951132;22;20269;-96
2022/07/10 13:21:13;;;;;;;5.57;0.55;;;21.10;89.70;;;;;;13027129;22;20187;-96
2022/07/10 13:26:36;;;;;;;2.60;0.82;;;20.90;87.80;;;;;;13016838;22;20196;-96
2022/07/10 13:31:39;;;;;;;2.97;1.10;;;21.60;90.80;;;;;;12995855;22;20247;-95
2022/07/10 13:36:45;;;;;;;1.10;0.50;;;21.30;90.90;;;;;;12976597;22;20235;-96
2022/07/10 13:41:56;;;;;;;4.55;0.93;;;21.20;91.20;;;;;;13003956;22;20177;-96
2022/07/10 13:47:01;;;;;;;1.20;0.70;;;21.80;90.80;;;;;;12979970;22;20174;-96
2022/07/10 13:52:04;;;;;;;2.97;1.23;;;21.80;90.60;;;;;;12967011;22;20181;-89
2022/07/10 13:57:07;;;;;;;2.03;0.98;;;21.50;90.70;;;;;;12970633;22;20506;-90
2022/07/10 14:02:09;;;;;;;3.90;0.85;;;22.10;91.10;;;;;;12982330;22;20223;-90
2022/07/10 14:07:18;;;;;;;3.80;0.60;;;22.60;91.00;;;;;;12998615;22;20178;-90
2022/07/10 14:12:21;;;;;;;1.15;0.40;;;23.20;87.90;;;;;;12954474;22;20224;-88
2022/07/10 14:17:24;;;;;;;2.15;0.93;;;23.70;90.00;;;;;;12981806;22;20224;-90
2022/07/10 14:22:28;;;;;;;3.53;1.48;;;23.80;88.50;;;;;;12980819;22;20548;-90
2022/07/10 14:27:31;;;;;;;12.93;1.42;;;24.00;89.40;;;;;;12980744;22;20520;-89
2022/07/10 14:32:34;;;;;;;13.85;1.75;;;23.70;82.80;;;;;;12952925;22;20177;-90
2022/07/10 14:37:37;;;;;;;3.95;0.80;;;23.20;83.90;;;;;;12979968;22;20625;-89
2022/07/10 14:42:39;;;;;;;3.22;1.15;;;21.90;88.30;;;;;;12978085;22;20185;-90
2022/07/10 14:47:42;;;;;;;2.10;1.15;;;21.50;90.00;;;;;;12980828;22;20189;-91
2022/07/10 14:52:45;;;;;;;2.75;1.25;;;21.10;89.90;;;;;;12954338;22;20634;-90
2022/07/10 14:57:48;;;;;;;3.50;1.27;;;20.60;91.80;;;;;;12980090;22;20170;-90
2022/07/10 15:02:51;;;;;;;4.05;1.42;;;20.70;92.20;;;;;;12928485;22;20240;-89
2022/07/10 15:07:53;;;;;;;4.53;1.57;;;20.40;93.50;;;;;;12957599;22;20244;-88
2022/07/10 15:12:56;;;;;;;1.53;0.63;;;;;;;;;;12984515;22;20194;-88
2022/07/10 15:17:59;;;;;;;1.40;0.47;;;19.60;98.10;;;;;;12957567;22;20193;-88
2022/07/10 15:23:02;;;;;;;1.90;0.73;;;19.50;98.40;;;;;;12983853;22;20220;-88
2022/07/10 15:28:08;;;;;;;0.87;0.50;;;19.00;99.90;;;;;;12997307;22;20178;-88
2022/07/10 15:33:11;;;;;;;3.17;0.40;;;18.70;99.10;;;;;;12955989;22;20177;-88
2022/07/10 15:38:14;;;;;;;0.67;0.43;;;19.10;98.20;;;;;;12957519;22;20170;-89
2022/07/10 15:43:17;;;;;;;0.40;0.30;;;19.20;98.40;;;;;;12984213;22;20555;-89
2022/07/10 15:48:20;;;;;;;2.60;0.60;;;19.10;96.90;;;;;;12983774;22;20189;-89
2022/07/10 15:53:23;;;;;;;1.73;0.50;;;19.40;96.30;;;;;;12955809;22;20208;-89
2022/07/10 15:58:26;;;;;;;4.10;0.97;;;19.60;96.20;;;;;;12984027;22;20551;-89
2022/07/10 16:03:28;;;;;;;3.95;1.05;;;20.20;96.60;;;;;;13001673;22;20170;-89
2022/07/10 16:08:31;;;;;;;4.10;1.50;;;20.20;97.40;;;;;;12980761;22;20201;-90
2022/07/10 16:13:33;;;;;;;9.20;1.60;;;20.00;98.60;;;;;;12980940;22;20198;-91
2022/07/10 16:18:36;;;;;;;3.07;1.10;;;19.60;98.70;;;;;;13001038;22;20212;-90
2022/07/10 16:23:38;;;;;;;2.97;1.23;;;19.60;99.40;;;;;;12982428;22;20170;-90
2022/07/10 16:28:41;;;;;;;2.25;1.25;;;20.20;98.50;;;;;;12954728;22;20228;-90
2022/07/10 16:33:45;;;;;;;3.58;1.38;;;21.30;96.00;;;;;;12955248;22;20271;-90
2022/07/10 16:38:49;;;;;;;2.25;0.77;;;21.70;95.00;;;;;;12999785;22;20494;-91
2022/07/10 16:43:51;;;;;;;3.13;0.82;;;22.00;94.70;;;;;;12982399;22;20174;-91
2022/07/10 16:48:54;;;;;;;2.83;0.82;;;22.40;93.60;;;;;;12979398;22;20255;-90
2022/07/10 16:53:58;;;;;;;3.67;0.82;;;22.70;93.00;;;;;;12981688;22;20166;-91
2022/07/10 16:59:18;;;;;;;4.75;0.63;;;23.10;92.30;;;;;;12978887;22;20185;-92
2022/07/10 17:04:35;;;;;;;1.92;1.00;;;23.00;92.30;;;;;;12981681;22;20174;-90
2022/07/10 17:09:38;;;;;;;3.05;1.13;;;23.00;92.40;;;;;;12981225;22;20189;-90
2022/07/10 17:14:40;;;;;;;3.63;0.90;;;22.90;92.20;;;;;;12980462;22;20193;-90
2022/07/10 17:19:43;;;;;;;1.60;0.77;;;23.10;92.10;;;;;;12978904;22;20215;-91
2022/07/10 17:24:45;;;;;;;4.80;1.42;;;23.10;92.10;;;;;;12980757;22;20165;-90
2022/07/10 17:29:48;;;;;;;3.00;1.25;;;21.70;93.60;;;;;;12965785;22;20194;-89
2022/07/10 17:34:50;;;;;;;1.42;0.93;;;21.50;94.60;;;;;;12968005;22;20235;-89
2022/07/10 17:39:53;;;;;;;5.72;0.85;;;21.70;94.50;;;;;;12979663;22;20239;-90
2022/07/10 17:44:55;;;;;;;4.70;1.23;;;21.90;94.00;;;;;;12986412;22;20173;-89
2022/07/10 17:49:58;;;;;;;5.13;1.08;;;22.00;94.00;;;;;;12980979;22;20185;-90
2022/07/10 17:55:00;;;;;;;1.53;0.97;;;17.50;99.90;;;;;;12953824;22;20507;-92
2022/07/10 18:00:04;;;;;;;1.77;1.17;;;15.20;99.90;;;;;;12981850;22;20173;-91
2022/07/10 18:05:13;;;;;;;2.80;1.27;;;16.60;99.90;;;;;;13002108;22;20204;-92
2022/07/10 18:10:15;;;;;;;2.63;0.70;;;19.40;99.90;;;;;;12978671;22;20198;-92
2022/07/10 18:15:18;;;;;;;2.88;1.10;;;20.60;99.90;;;;;;12980155;22;20536;-93
2022/07/10 18:20:21;;;;;;;2.85;0.70;;;21.30;99.90;;;;;;12927550;22;20215;-92
2022/07/10 18:25:23;;;;;;;2.53;0.70;;;21.70;99.90;;;;;;12980206;22;20170;-92
2022/07/10 18:30:26;;;;;;;3.65;1.08;;;21.80;99.90;;;;;;12953981;22;20182;-92
2022/07/10 18:35:28;;;;;;;3.63;1.63;;;22.00;99.90;;;;;;12953560;22;20617;-92
2022/07/10 18:40:31;;;;;;;3.15;1.02;;;18.00;99.90;;;;;;12932800;22;20181;-92
2022/07/10 18:45:33;;;;;;;5.10;1.33;;;19.70;99.90;;;;;;12982511;22;20510;-92
2022/07/10 18:50:36;;;;;;;1.38;1.00;;;20.80;99.90;;;;;;12930604;22;20198;-93
2022/07/10 18:55:39;;;;;;;2.58;0.82;;;21.30;99.90;;;;;;12981894;22;20174;-92
2022/07/10 19:00:41;;;;;;;1.58;0.70;;;21.70;99.90;;;;;;12956448;22;20247;-91
2022/07/10 19:05:44;;;;;;;3.97;1.00;;;22.00;99.90;;;;;;12955723;22;20216;-91
2022/07/10 19:10:47;;;;;;;4.43;0.75;;;22.10;99.90;;;;;;12982586;22;20185;-92
2022/07/10 19:15:50;;;;;;;2.17;0.57;;;22.20;99.90;;;;;;12981517;22;20244;-92
2022/07/10 19:20:53;;;;;;;1.30;0.73;;;22.00;99.90;;;;;;12957465;22;20182;-91
2022/07/10 19:25:55;;;;;;;2.08;0.55;;;21.90;99.90;;;;;;12987338;22;20169;-90
2022/07/10 19:30:58;;;;;;;1.42;0.75;;;21.80;99.90;;;;;;12957559;22;20194;-90
2022/07/10 19:36:02;;;;;;;1.75;0.70;;;22.00;99.90;;;;;;12982357;22;20173;-90
2022/07/10 19:41:08;;;;;;;2.67;0.68;;;22.10;99.90;;;;;;12982366;22;20192;-90
2022/07/10 19:46:11;;;;;;;3.30;2.15;;;22.20;99.90;;;;;;12972452;22;20181;-90
2022/07/10 19:51:14;;;;;;;1.95;1.08;;;22.20;99.90;;;;;;12982785;22;20185;-89
2022/07/10 19:56:17;;;;;;;1.10;0.55;;;22.20;99.90;;;;;;12983025;22;20166;-90
2022/07/10 20:01:19;;;;;;;1.23;0.60;;;22.20;99.90;;;;;;12981689;22;20204;-90
2022/07/10 20:06:25;;;;;;;3.08;0.70;;;22.20;99.90;;;;;;12982235;22;20196;-90
2022/07/10 20:11:27;;;;;;;1.25;0.70;;;22.10;99.90;;;;;;12982087;22;20208;-89
2022/07/10 20:16:30;;;;;;;1.00;0.70;;;22.20;99.90;;;;;;12982533;22;20190;-89
2022/07/10 20:21:33;;;;;;;1.27;0.65;;;22.20;99.90;;;;;;12981515;22;20170;-90
2022/07/10 20:26:35;;;;;;;1.50;0.77;;;22.20;99.80;;;;;;12954569;22;20648;-89
2022/07/10 20:31:38;;;;;;;1.08;0.60;;;22.20;99.70;;;;;;12953964;22;20758;-90
2022/07/10 20:42:03;;;;;;;0.60;0.40;;;22.20;99.70;;;;;;12963486;22;20762;-89
2022/07/10 20:47:06;;;;;;;1.13;0.60;;;22.10;99.70;;;;;;12949231;22;20181;-89
2022/07/10 20:52:09;;;;;;;1.17;0.63;;;22.10;99.70;;;;;;12951144;22;20201;-91
2022/07/10 20:57:11;;;;;;;1.05;0.50;;;22.10;99.70;;;;;;12979599;22;20166;-90
2022/07/10 21:02:16;;;;;;;2.15;0.93;;;22.10;99.70;;;;;;12927301;22;20181;-91
2022/07/10 21:07:18;;;;;;;1.23;0.70;;;22.10;99.60;;;;;;12946856;22;20208;-90
2022/07/10 21:12:29;;;;;;;0.60;0.50;;;22.10;99.60;;;;;;12992877;22;20573;-90
2022/07/10 21:17:32;;;;;;;0.50;0.50;;;22.20;99.50;;;;;;12969739;22;20166;-90
2022/07/10 21:22:34;;;;;;;0.80;0.50;;;22.10;99.50;;;;;;12925702;22;20211;-91
2022/07/10 21:27:37;;;;;;;0.88;0.60;;;22.10;99.50;;;;;;12994713;22;20220;-91
2022/07/10 21:32:39;;;;;;;1.05;0.60;;;22.10;99.40;;;;;;12950785;22;20523;-90
2022/07/10 21:37:42;;;;;;;1.15;0.57;;;22.10;99.40;;;;;;12977039;22;20177;-93
2022/07/10 21:42:45;;;;;;;2.30;0.70;;;22.10;99.50;;;;;;12953802;22;20174;-92
2022/07/10 21:47:48;;;;;;;1.15;0.63;;;22.00;99.50;;;;;;12954232;22;20177;-93
2022/07/10 21:52:51;;;;;;;1.20;0.60;;;22.10;99.40;;;;;;12927702;22;20201;-93
2022/07/10 21:57:53;;;;;;;1.55;0.75;;;22.00;99.40;;;;;;12977007;22;20620;-92
2022/07/10 22:02:56;;;;;;;1.88;0.85;;;22.10;99.50;;;;;;12979227;22;20166;-93
2022/07/10 22:07:59;;;;;;;1.38;0.82;;;22.00;99.50;;;;;;12951552;22;20235;-92
2022/07/10 22:13:02;;;;;;;3.58;0.50;;;22.00;99.60;;;;;;12953972;22;20228;-93
2022/07/10 22:18:05;;;;;;;0.95;0.65;;;22.00;99.50;;;;;;12955067;22;20203;-91
2022/07/10 22:23:07;;;;;;;1.58;0.60;;;22.00;99.60;;;;;;13000222;22;20227;-92
2022/07/10 22:28:10;;;;;;;0.65;0.55;;;22.00;99.60;;;;;;12954268;22;20579;-92
2022/07/10 22:33:13;;;;;;;0.88;0.80;;;21.90;99.40;;;;;;12979893;22;20190;-91
2022/07/10 22:38:15;;;;;;;1.50;0.65;;;21.90;99.60;;;;;;12979089;22;20208;-91
2022/07/10 22:43:18;;;;;;;0.80;0.60;;;21.80;99.70;;;;;;12970890;22;20178;-92
2022/07/10 22:48:20;;;;;;;0.98;0.50;;;21.90;99.70;;;;;;12980375;22;20170;-92
2022/07/10 22:53:23;;;;;;;2.47;0.80;;;21.80;99.70;;;;;;12954206;22;20247;-91
2022/07/10 22:58:25;;;;;;;1.30;0.70;;;21.90;99.60;;;;;;12979120;22;20170;-92
2022/07/10 23:03:28;;;;;;;2.17;1.67;;;21.80;99.70;;;;;;12980109;22;20165;-92
2022/07/10 23:08:31;;;;;;;1.17;0.47;;;21.80;99.60;;;;;;12980504;22;20166;-92
2022/07/10 23:13:33;;;;;;;1.05;0.70;;;21.80;99.50;;;;;;12953045;22;20675;-91
2022/07/10 23:18:36;;;;;;;1.02;0.77;;;21.80;99.60;;;;;;12980350;22;20211;-91
2022/07/10 23:23:40;;;;;;;0.70;0.60;;;21.80;99.60;;;;;;12953504;22;20182;-89
2022/07/10 23:28:43;;;;;;;1.08;0.85;;;21.70;99.80;;;;;;12984946;22;20197;-92
2022/07/10 23:33:46;;;;;;;1.27;0.90;;;21.70;99.70;;;;;;12982521;22;20204;-91
2022/07/10 23:38:49;;;;;;;0.75;0.65;;;21.60;99.80;;;;;;12957033;22;20505;-91
2022/07/10 23:43:51;;;;;;;1.30;0.82;;;21.70;99.70;;;;;;12957306;22;20182;-91
2022/07/10 23:54:15;;;;;;;1.30;0.77;;;21.70;99.60;;;;;;13002151;22;20215;-90
2022/07/10 23:59:17;;;;;;;1.17;0.80;;;21.70;99.60;;;;;;12955912;22;20257;-90
